Time;durP1;ratioP1;P1;durP2;ratioP2;P2;SDS_P1;SDS_P2;PMS_P1;PMS_P2;Temp;Humidity;BMP_temperature;BMP_pressure;BME280_temperature;BME280_humidity;BME280_pressure;Samples;Min_cycle;Max_cycle;Signal;HPM_P1;HPM_P2
2022/04/01 00:00:15;;;;;;;;;2.67;0.67;;;;;5.56;51.42;100087.34;4995809;28;47156;-71
2022/04/01 00:02:47;;;;;;;;;3.00;2.00;;;;;5.63;51.26;100110.47;5013691;28;45360;-69
2022/04/01 00:05:15;;;;;;;;;2.33;1.00;;;;;5.29;51.48;100067.59;5016762;28;45432;-69
2022/04/01 00:07:41;;;;;;;;;2.67;2.67;;;;;5.64;52.66;100117.41;5016673;28;45475;-70
2022/04/01 00:10:08;;;;;;;;;2.33;1.00;;;;;5.66;52.14;100086.47;5016561;28;45715;-70
2022/04/01 00:12:43;;;;;;;;;0.67;0.67;;;;;5.57;51.92;100089.84;5015439;28;45273;-70
2022/04/01 00:15:14;;;;;;;;;3.00;1.67;;;;;5.53;51.88;100099.00;5016867;28;46309;-70
2022/04/01 00:17:46;;;;;;;;;1.00;1.00;;;;;5.50;52.02;100093.97;5014360;28;45547;-70
2022/04/01 00:23:03;;;;;;;;;3.00;3.00;;;;;5.53;52.33;100071.78;5016021;28;45435;-69
2022/04/01 00:25:29;;;;;;;;;3.67;2.00;;;;;5.69;52.08;100095.91;5016628;28;45255;-70
2022/04/01 00:27:57;;;;;;;;;3.00;2.00;;;;;5.62;52.65;100100.88;5016359;28;45356;-69
2022/04/01 00:30:23;;;;;;;;;3.00;3.00;;;;;5.55;51.96;100094.44;5014614;28;48205;-69
2022/04/01 00:32:48;;;;;;;;;0.33;0.00;;;;;5.49;52.26;100084.41;5019617;28;45352;-70
2022/04/01 00:35:14;;;;;;;;;1.00;1.00;;;;;5.42;52.62;100104.34;5020045;28;45247;-70
2022/04/01 00:37:45;;;;;;;;;2.00;1.00;;;;;5.38;52.67;100094.97;5020191;28;45433;-70
2022/04/01 00:40:12;;;;;;;;;2.00;1.00;;;;;4.27;52.62;99915.38;5017964;28;47932;-69
2022/04/01 00:42:38;;;;;;;;;2.00;0.00;;;;;4.95;53.00;100011.56;5019224;28;45379;-70
2022/04/01 00:45:07;;;;;;;;;3.00;1.00;;;;;5.50;52.58;100080.78;5019723;28;45522;-71
2022/04/01 00:47:32;;;;;;;;;1.33;1.33;;;;;5.59;52.26;100074.75;5018841;28;45660;-69
2022/04/01 00:49:58;;;;;;;;;2.33;2.00;;;;;5.55;52.79;100075.97;5018206;28;48195;-69
2022/04/01 00:52:26;;;;;;;;;1.67;1.67;;;;;5.56;53.02;100072.38;5017846;28;45949;-70
2022/04/01 00:54:51;;;;;;;;;2.00;1.00;;;;;5.32;52.66;100058.59;5018129;28;45470;-70
2022/04/01 00:57:18;;;;;;;;;1.33;1.33;;;;;5.53;52.82;100072.63;5019159;28;45506;-71
2022/04/01 00:59:44;;;;;;;;;1.00;1.00;;;;;5.53;52.68;100066.53;5017778;28;47307;-70
2022/04/01 01:02:10;;;;;;;;;3.33;2.00;;;;;5.47;52.91;100068.72;5019021;28;45474;-69
2022/04/01 01:04:37;;;;;;;;;3.00;0.67;;;;;5.53;53.08;100058.59;5019189;28;45353;-69
2022/04/01 01:07:03;;;;;;;;;0.00;0.00;;;;;5.46;52.63;100058.28;5019825;28;45285;-69
2022/04/01 01:09:29;;;;;;;;;1.00;1.00;;;;;5.51;52.89;100053.47;5018685;28;45611;-70
2022/04/01 01:11:55;;;;;;;;;0.67;0.67;;;;;5.38;52.70;100013.28;5019082;28;45489;-69
2022/04/01 01:14:35;;;;;;;;;1.00;1.00;;;;;5.57;52.31;100031.84;5009967;28;45282;-68
2022/04/01 01:17:03;;;;;;;;;2.00;1.00;;;;;4.27;52.59;99815.38;5003307;28;45683;-72
2022/04/01 01:19:32;;;;;;;;;1.00;1.00;;;;;5.56;53.14;100038.09;5017534;28;46264;-73
2022/04/01 01:21:58;;;;;;;;;3.00;3.00;;;;;5.61;52.63;100022.75;5017385;28;45470;-70
2022/04/01 01:24:38;;;;;;;;;2.00;2.00;;;;;5.36;53.11;99983.56;5017427;28;45501;-71
2022/04/01 01:27:07;;;;;;;;;1.00;1.00;;;;;5.67;53.60;100024.00;5017927;28;45503;-70
2022/04/01 01:29:35;;;;;;;;;1.67;1.67;;;;;5.69;53.56;100004.44;5016589;28;46950;-70
2022/04/01 01:32:03;;;;;;;;;1.00;1.00;;;;;5.50;52.90;99973.53;5017485;28;46003;-70
2022/04/01 01:34:32;;;;;;;;;0.67;0.33;;;;;5.85;53.45;100026.88;5019021;28;45301;-70
2022/04/01 01:36:58;;;;;;;;;1.00;1.00;;;;;5.33;53.80;99933.75;5019118;28;46397;-70
2022/04/01 01:39:23;;;;;;;;;2.67;1.33;;;;;5.86;53.47;100004.81;5018554;28;45795;-73
2022/04/01 01:41:50;;;;;;;;;1.67;0.00;;;;;5.77;53.86;100012.53;5017760;28;45498;-70
2022/04/01 01:44:17;;;;;;;;;0.67;0.67;;;;;5.50;54.52;99978.81;5016852;28;45347;-70
2022/04/01 01:46:42;;;;;;;;;0.00;0.00;;;;;5.57;54.65;100004.66;5001009;28;45692;-69
2022/04/01 01:49:08;;;;;;;;;0.00;0.00;;;;;5.62;55.34;99994.56;5018514;28;45254;-71
2022/04/01 01:57:02;;;;;;;;;1.00;1.00;;;;;5.84;55.96;99997.03;5011475;28;46332;-70
2022/04/01 01:59:27;;;;;;;;;1.67;1.67;;;;;5.69;56.42;99959.63;5018145;28;47892;-71
2022/04/01 02:01:53;;;;;;;;;0.33;0.33;;;;;5.80;57.30;99977.97;5018336;28;45344;-70
2022/04/01 02:04:23;;;;;;;;;0.67;0.00;;;;;5.91;56.80;99970.97;5002691;28;45372;-70
2022/04/01 02:06:49;;;;;;;;;1.00;1.00;;;;;5.87;55.85;99953.72;5017459;28;45472;-69
2022/04/01 02:09:16;;;;;;;;;0.33;0.00;;;;;5.45;55.91;99883.47;5016726;28;48182;-71
2022/04/01 02:11:44;;;;;;;;;2.00;0.33;;;;;5.78;56.77;99950.06;5018240;28;45506;-69
2022/04/01 02:14:11;;;;;;;;;1.00;1.00;;;;;5.97;55.58;99960.72;5018178;28;45459;-70
2022/04/01 02:16:37;;;;;;;;;1.00;1.00;;;;;6.01;56.48;99967.44;5016812;28;45628;-72
2022/04/01 02:19:03;;;;;;;;;2.33;1.00;;;;;5.49;56.12;99913.03;5010172;28;46309;-70
2022/04/01 02:21:31;;;;;;;;;1.00;1.00;;;;;5.80;57.23;99970.06;5017868;28;45452;-70
2022/04/01 02:23:56;;;;;;;;;1.00;1.00;;;;;5.67;56.87;99932.56;5018130;28;45665;-71
2022/04/01 02:26:22;;;;;;;;;2.00;2.00;;;;;5.87;58.31;99969.56;5017029;28;45227;-70
2022/04/01 02:28:48;;;;;;;;;1.67;1.67;;;;;5.78;58.48;99958.81;5017713;28;46430;-71
2022/04/01 02:31:17;;;;;;;;;3.67;1.00;;;;;5.48;58.67;99890.28;5018000;28;45396;-68
2022/04/01 02:33:46;;;;;;;;;1.00;1.00;;;;;5.75;59.27;99929.25;5018121;28;45463;-68
2022/04/01 02:36:12;;;;;;;;;2.67;1.00;;;;;5.72;59.23;99935.63;4997325;28;45524;-70
2022/04/01 02:38:41;;;;;;;;;1.00;1.00;;;;;5.86;59.53;99947.63;5014097;28;46392;-69
2022/04/01 02:41:09;;;;;;;;;2.67;1.00;;;;;5.84;59.34;99948.72;5010091;28;45486;-71
2022/04/01 02:43:35;;;;;;;;;1.67;1.00;;;;;5.46;60.67;99897.50;5016288;28;45499;-71
2022/04/01 02:46:02;;;;;;;;;0.67;0.67;;;;;5.71;59.35;99947.13;5017936;28;45318;-71
2022/04/01 02:48:28;;;;;;;;;1.00;1.00;;;;;5.59;60.13;99939.44;5017388;28;46439;-71
2022/04/01 02:50:54;;;;;;;;;0.67;0.67;;;;;5.62;60.74;99941.84;5016031;28;45322;-72
2022/04/01 02:53:19;;;;;;;;;3.00;1.00;;;;;5.02;61.04;99852.06;5015809;28;45273;-71
2022/04/01 02:55:45;;;;;;;;;0.00;0.00;;;;;5.58;61.42;99938.59;5017676;28;45479;-71
2022/04/01 02:58:11;;;;;;;;;1.00;1.00;;;;;5.46;61.54;99914.13;5017180;28;45322;-69
2022/04/01 03:00:38;;;;;;;;;1.00;1.00;;;;;5.54;61.49;99924.00;5016136;28;45366;-71
2022/04/01 03:03:06;;;;;;;;;1.67;1.67;;;;;5.46;61.88;99929.97;5018001;28;45633;-70
2022/04/01 03:05:37;;;;;;;;;3.33;1.00;;;;;5.56;62.38;99932.63;5011100;28;45520;-70
2022/04/01 03:08:05;;;;;;;;;1.00;1.00;;;;;5.40;62.05;99911.16;5014355;28;45597;-72
2022/04/01 03:10:35;;;;;;;;;2.00;1.00;;;;;5.50;62.80;99918.19;5015991;28;45469;-70
2022/04/01 03:13:01;;;;;;;;;1.00;1.00;;;;;5.58;61.80;99933.31;5017379;28;45312;-69
2022/04/01 03:15:30;;;;;;;;;2.00;1.00;;;;;5.46;62.42;99919.41;5017496;28;45292;-71
2022/04/01 03:17:56;;;;;;;;;3.00;1.00;;;;;5.05;63.31;99887.84;5016549;28;45695;-71
2022/04/01 03:20:23;;;;;;;;;2.00;2.00;;;;;5.24;63.14;99898.50;5017223;28;45336;-74
2022/04/01 03:22:49;;;;;;;;;1.00;1.00;;;;;5.43;63.79;99910.94;5017265;28;45345;-71
2022/04/01 03:25:18;;;;;;;;;1.67;1.67;;;;;5.37;62.96;99880.66;5015715;28;45325;-71
2022/04/01 03:27:47;;;;;;;;;2.33;2.00;;;;;5.36;63.23;99880.78;5016894;28;45697;-71
2022/04/01 03:30:13;;;;;;;;;0.00;0.00;;;;;5.40;62.38;99892.72;5016656;28;45234;-71
2022/04/01 03:32:40;;;;;;;;;2.00;1.00;;;;;5.22;63.90;99883.78;5012131;28;45518;-70
2022/04/01 03:35:16;;;;;;;;;0.33;0.00;;;;;4.75;63.52;99823.59;5014740;28;45565;-72
2022/04/01 03:37:42;;;;;;;;;1.00;1.00;;;;;5.13;63.59;99888.84;5016633;28;45953;-71
2022/04/01 03:40:10;;;;;;;;;1.00;1.00;;;;;5.03;64.21;99871.34;5016909;28;46286;-70
2022/04/01 03:42:36;;;;;;;;;0.00;0.00;;;;;5.20;64.66;99891.78;5016907;28;45463;-70
2022/04/01 03:45:06;;;;;;;;;1.00;1.00;;;;;4.85;64.64;99871.91;5017234;28;45276;-70
2022/04/01 03:47:41;;;;;;;;;1.00;1.00;;;;;5.13;64.75;99902.03;5016704;28;45740;-70
2022/04/01 03:50:09;;;;;;;;;1.00;1.00;;;;;5.30;64.15;99897.13;5014697;28;46397;-70
2022/04/01 03:52:35;;;;;;;;;2.00;2.00;;;;;5.16;63.74;99879.84;5016717;28;45189;-72
2022/04/01 03:55:06;;;;;;;;;1.67;0.33;;;;;5.23;63.83;99894.19;5016953;28;45333;-70
2022/04/01 03:57:39;;;;;;;;;0.67;0.67;;;;;5.17;63.73;99882.34;5016711;28;45455;-71
2022/04/01 04:00:12;;;;;;;;;1.33;1.33;;;;;5.16;63.16;99883.31;5016394;28;45501;-74
2022/04/01 04:02:42;;;;;;;;;2.00;0.00;;;;;5.31;63.56;99898.78;5009683;28;45490;-69
2022/04/01 04:05:09;;;;;;;;;0.33;0.33;;;;;5.32;63.26;99895.19;5015911;28;45313;-70
2022/04/01 04:07:35;;;;;;;;;2.67;1.00;;;;;5.38;63.31;99902.56;5015685;28;45368;-72
2022/04/01 04:10:03;;;;;;;;;1.33;1.33;;;;;5.36;63.08;99902.69;5014950;28;46216;-70
2022/04/01 04:12:30;;;;;;;;;1.00;1.00;;;;;5.11;63.14;99853.91;5016026;28;45256;-71
2022/04/01 04:14:56;;;;;;;;;2.33;1.00;;;;;5.44;63.57;99883.59;5016400;28;45525;-70
2022/04/01 04:17:31;;;;;;;;;2.67;2.00;;;;;5.57;62.46;99892.09;5015543;28;45617;-70
2022/04/01 04:20:07;;;;;;;;;3.67;2.33;;;;;5.55;62.97;99891.41;5008104;28;45457;-71
2022/04/01 04:22:51;;;;;;;;;1.00;0.67;;;;;5.37;62.07;99864.81;5014591;28;45445;-70
2022/04/01 04:25:21;;;;;;;;;1.00;1.00;;;;;5.47;63.14;99891.25;5006360;28;45538;-71
2022/04/01 04:27:58;;;;;;;;;2.00;2.00;;;;;5.34;62.41;99888.81;5010880;28;47223;-71
2022/04/01 04:30:33;;;;;;;;;2.00;2.00;;;;;5.40;62.73;99882.19;5014123;28;45527;-70
2022/04/01 04:33:05;;;;;;;;;1.00;1.00;;;;;5.43;62.22;99892.47;5015848;28;45245;-70
2022/04/01 04:35:36;;;;;;;;;1.00;1.00;;;;;5.40;62.31;99885.66;5006399;28;45328;-71
2022/04/01 04:38:02;;;;;;;;;2.00;1.00;;;;;5.56;61.61;99900.97;5015888;28;46190;-70
2022/04/01 04:40:28;;;;;;;;;2.00;0.00;;;;;5.46;61.80;99886.94;5014330;28;45559;-70
2022/04/01 04:42:57;;;;;;;;;2.67;1.67;;;;;5.49;61.93;99902.50;5014670;28;45383;-71
2022/04/01 04:45:25;;;;;;;;;1.00;1.00;;;;;5.57;61.46;99902.66;5015880;28;45442;-69
2022/04/01 04:47:51;;;;;;;;;3.00;2.00;;;;;5.45;60.94;99891.38;5015914;28;46692;-70
2022/04/01 04:50:20;;;;;;;;;3.00;2.00;;;;;5.55;61.33;99901.97;5015401;28;45938;-73
2022/04/01 04:52:54;;;;;;;;;1.00;1.00;;;;;5.32;61.60;99877.56;5007478;28;45480;-71
2022/04/01 04:55:21;;;;;;;;;1.33;1.33;;;;;5.37;61.98;99877.19;5014513;28;45493;-71
2022/04/01 04:57:48;;;;;;;;;1.00;1.00;;;;;5.48;61.97;99903.47;5015574;28;45660;-71
2022/04/01 05:00:21;;;;;;;;;1.67;1.00;;;;;5.53;61.20;99918.88;5013538;28;45702;-71
2022/04/01 05:02:59;;;;;;;;;0.33;0.33;;;;;5.57;61.43;99909.72;5015818;28;45471;-71
2022/04/01 05:05:34;;;;;;;;;1.00;1.00;;;;;5.49;61.37;99905.13;5014186;28;45501;-71
2022/04/01 05:08:26;;;;;;;;;1.00;1.00;;;;;5.59;61.45;99915.69;5015675;28;46605;-71
2022/04/01 05:11:22;;;;;;;;;2.00;2.00;;;;;5.17;61.08;99869.19;5015856;28;45290;-70
2022/04/01 05:14:24;;;;;;;;;4.00;2.33;;;;;5.46;60.79;99929.13;5016054;28;45479;-71
2022/04/01 05:16:53;;;;;;;;;3.33;2.00;;;;;5.44;60.75;99928.41;5015291;28;45397;-72
2022/04/01 05:19:27;;;;;;;;;0.67;0.00;;;;;4.75;60.74;99825.41;5018786;28;46294;-71
2022/04/01 05:22:12;;;;;;;;;3.33;3.00;;;;;5.33;60.33;99946.94;5017404;28;45363;-71
2022/04/01 05:24:50;;;;;;;;;2.33;2.00;;;;;5.18;59.42;99922.72;5017746;28;45424;-72
2022/04/01 05:27:28;;;;;;;;;3.33;3.33;;;;;5.34;59.76;99935.44;5020171;28;45447;-68
2022/04/01 05:30:14;;;;;;;;;2.67;2.67;;;;;5.39;58.86;99947.25;5026411;28;45463;-70
2022/04/01 05:32:44;;;;;;;;;2.33;2.33;;;;;5.33;58.37;99933.75;5018150;28;45259;-72
2022/04/01 05:35:17;;;;;;;;;1.67;1.67;;;;;5.29;59.91;99948.16;5018955;28;45419;-69
2022/04/01 05:37:43;;;;;;;;;2.00;2.00;;;;;4.94;60.51;99859.75;5018844;28;45198;-70
2022/04/01 05:40:09;;;;;;;;;2.00;2.00;;;;;5.05;60.68;99885.22;5016063;28;47784;-70
2022/04/01 05:42:36;;;;;;;;;1.00;1.00;;;;;5.53;60.20;99946.06;5016233;28;45788;-70
2022/04/01 05:45:02;;;;;;;;;2.00;2.00;;;;;5.55;60.84;99943.31;5016578;28;45443;-70
2022/04/01 05:47:31;;;;;;;;;3.00;3.00;;;;;5.10;60.63;99877.75;5018009;28;45514;-71
2022/04/01 05:49:58;;;;;;;;;0.67;0.67;;;;;5.42;60.52;99938.25;5009608;28;47687;-70
2022/04/01 05:52:24;;;;;;;;;1.67;0.67;;;;;5.21;60.50;99887.38;5017721;28;45542;-71
2022/04/01 05:54:51;;;;;;;;;3.00;3.00;;;;;5.66;60.08;99949.34;5018073;28;45479;-69
2022/04/01 05:57:19;;;;;;;;;2.67;2.00;;;;;5.44;58.90;99954.78;5017784;28;45586;-70
2022/04/01 05:59:45;;;;;;;;;4.33;4.33;;;;;5.43;60.90;99961.84;5017185;28;46338;-72
2022/04/01 06:02:53;;;;;;;;;4.33;2.33;;;;;5.46;60.82;99972.13;5017892;28;45344;-71
2022/04/01 06:05:31;;;;;;;;;3.00;3.00;;;;;5.32;61.50;99964.56;5017007;28;45570;-75
2022/04/01 06:08:18;;;;;;;;;5.00;3.00;;;;;5.30;61.35;99984.94;5017216;28;45275;-70
2022/04/01 06:10:54;;;;;;;;;2.00;2.00;;;;;5.27;61.88;99982.56;5008502;28;48779;-72
2022/04/01 06:13:23;;;;;;;;;3.67;3.00;;;;;5.25;61.90;99988.94;5010177;28;45596;-71
2022/04/01 06:16:04;;;;;;;;;3.00;3.00;;;;;5.30;62.85;99989.38;5016661;28;45482;-75
2022/04/01 06:18:53;;;;;;;;;3.00;3.00;;;;;5.36;62.41;99996.75;5016591;28;45448;-73
2022/04/01 06:21:23;;;;;;;;;3.00;3.00;;;;;5.42;61.74;99996.25;5010292;28;45436;-72
2022/04/01 06:24:12;;;;;;;;;4.00;4.00;;;;;5.48;62.16;99995.72;5012038;28;45634;-71
2022/04/01 06:26:47;;;;;;;;;4.67;3.67;;;;;5.46;63.19;100006.41;5011334;28;45478;-70
2022/04/01 06:29:38;;;;;;;;;4.33;4.33;;;;;5.44;63.79;100012.78;5016245;28;46665;-71
2022/04/01 06:32:11;;;;;;;;;4.67;4.67;;;;;5.41;63.48;100005.97;5015145;28;47984;-70
2022/04/01 06:35:06;;;;;;;;;6.33;4.00;;;;;5.23;64.14;99994.31;5017295;28;45466;-68
2022/04/01 06:37:47;;;;;;;;;6.67;5.00;;;;;5.22;64.11;100007.63;5014160;28;45465;-70
2022/04/01 06:40:14;;;;;;;;;8.00;4.67;;;;;5.13;64.38;99991.59;5015710;28;45254;-71
2022/04/01 06:42:43;;;;;;;;;5.67;5.67;;;;;5.33;63.69;100013.66;5017605;28;46559;-71
2022/04/01 06:45:13;;;;;;;;;7.00;7.00;;;;;5.25;64.76;100007.38;5017297;28;45281;-74
2022/04/01 06:47:41;;;;;;;;;4.33;4.33;;;;;5.33;64.07;100028.63;5017458;28;45218;-68
2022/04/01 06:50:09;;;;;;;;;5.67;4.00;;;;;5.12;64.63;99984.66;5016210;28;45337;-68
2022/04/01 06:52:35;;;;;;;;;9.67;6.67;;;;;5.35;64.24;100029.34;5016830;28;46772;-74
2022/04/01 06:55:00;;;;;;;;;4.00;4.00;;;;;5.24;64.39;100025.00;5016957;28;45175;-71
2022/04/01 06:57:26;;;;;;;;;9.33;9.33;;;;;5.24;64.29;100032.06;5016250;28;45392;-72
2022/04/01 06:59:52;;;;;;;;;7.33;5.00;;;;;5.04;64.64;100012.63;5017236;28;45538;-70
2022/04/01 07:02:17;;;;;;;;;8.00;5.00;;;;;5.18;64.79;100036.84;5011729;28;48579;-70
2022/04/01 07:04:46;;;;;;;;;6.00;6.00;;;;;4.69;64.99;99982.09;5011553;28;45416;-72
2022/04/01 07:07:11;;;;;;;;;8.00;7.00;;;;;5.12;64.96;100055.81;5010995;28;45647;-71
2022/04/01 07:09:37;;;;;;;;;7.00;7.00;;;;;4.97;65.78;100035.16;5016740;28;45427;-70
2022/04/01 07:12:03;;;;;;;;;8.00;5.00;;;;;5.11;65.69;100038.31;5007284;28;47431;-70
2022/04/01 07:14:31;;;;;;;;;9.00;8.00;;;;;5.05;64.71;100030.09;5011947;28;45551;-70
2022/04/01 07:16:57;;;;;;;;;8.33;8.33;;;;;5.05;64.44;100030.94;5015636;28;45428;-70
2022/04/01 07:19:22;;;;;;;;;7.00;5.00;;;;;5.02;64.84;100025.09;5016792;28;45505;-70
2022/04/01 07:21:48;;;;;;;;;8.67;8.67;;;;;5.12;64.67;100034.72;5018050;28;46101;-69
2022/04/01 07:24:14;;;;;;;;;5.00;3.33;;;;;5.16;64.17;100059.84;5016397;28;45477;-70
2022/04/01 07:26:40;;;;;;;;;10.67;10.00;;;;;5.09;64.95;100053.44;5014079;28;45606;-70
2022/04/01 07:29:06;;;;;;;;;11.67;10.00;;;;;5.15;64.77;100052.91;5013650;28;45740;-68
2022/04/01 07:34:24;;;;;;;;;10.33;10.00;;;;;4.79;65.32;100005.88;5006970;28;45538;-70
2022/04/01 07:36:52;;;;;;;;;11.33;11.00;;;;;5.05;65.07;100065.19;5005543;28;45690;-69
2022/04/01 07:39:18;;;;;;;;;5.67;5.67;;;;;4.84;65.45;100037.97;5013088;28;45530;-73
2022/04/01 07:41:44;;;;;;;;;11.00;11.00;;;;;5.00;65.22;100059.44;5015381;28;46423;-69
2022/04/01 07:44:10;;;;;;;;;14.33;12.33;;;;;4.99;65.78;100067.47;5007523;28;45531;-70
2022/04/01 07:46:36;;;;;;;;;9.00;9.00;;;;;4.93;65.87;100053.00;5013740;28;45471;-69
2022/04/01 07:49:03;;;;;;;;;11.00;9.33;;;;;4.91;65.85;100056.72;5011933;28;45382;-70
2022/04/01 07:51:28;;;;;;;;;8.33;8.33;;;;;4.85;65.49;100040.47;5011638;28;47002;-70
2022/04/01 07:53:54;;;;;;;;;10.00;8.00;;;;;5.12;65.29;100078.69;5009646;28;45267;-72
2022/04/01 07:56:20;;;;;;;;;9.00;8.00;;;;;4.90;65.14;100048.00;5013942;28;45832;-69
2022/04/01 07:58:45;;;;;;;;;10.67;9.33;;;;;4.96;65.43;100058.00;5012967;28;45610;-69
2022/04/01 08:01:12;;;;;;;;;10.00;7.67;;;;;5.09;65.26;100086.84;5013494;28;45864;-70
2022/04/01 08:03:41;;;;;;;;;8.00;8.00;;;;;4.79;63.85;100064.66;5012763;28;45631;-67
2022/04/01 08:06:07;;;;;;;;;11.00;10.33;;;;;4.92;64.46;100088.22;5011759;28;45358;-70
2022/04/01 08:08:32;;;;;;;;;9.00;9.00;;;;;4.97;65.46;100093.94;5013189;28;45423;-66
2022/04/01 08:10:58;;;;;;;;;9.00;9.00;;;;;4.64;64.41;100046.63;5015027;28;45925;-67
2022/04/01 08:13:24;;;;;;;;;7.33;7.33;;;;;4.99;64.84;100099.91;5013878;28;45508;-67
2022/04/01 08:15:50;;;;;;;;;8.67;8.67;;;;;4.82;64.84;100103.09;5013042;28;45310;-67
2022/04/01 08:18:16;;;;;;;;;10.00;10.00;;;;;4.91;65.62;100110.25;5015501;28;45522;-67
2022/04/01 08:20:41;;;;;;;;;10.33;10.33;;;;;5.02;65.22;100126.03;5015513;28;47736;-68
2022/04/01 08:23:06;;;;;;;;;7.33;7.33;;;;;5.07;64.96;100129.13;5013940;28;45499;-67
2022/04/01 08:25:32;;;;;;;;;9.00;9.00;;;;;4.82;64.16;100076.75;5014363;28;45283;-67
2022/04/01 08:28:00;;;;;;;;;8.00;8.00;;;;;5.03;63.11;100111.91;5016062;28;45399;-68
2022/04/01 08:30:32;;;;;;;;;9.00;7.67;;;;;4.80;64.10;100086.56;5014865;28;48128;-70
2022/04/01 08:33:13;;;;;;;;;7.33;7.33;;;;;5.09;63.08;100129.84;5015130;28;45518;-67
2022/04/01 08:35:57;;;;;;;;;12.33;11.33;;;;;4.89;64.07;100110.38;5015339;28;45431;-68
2022/04/01 08:38:29;;;;;;;;;8.00;8.00;;;;;4.52;63.69;100054.53;5012709;28;45271;-72
2022/04/01 08:41:18;;;;;;;;;10.33;9.67;;;;;5.00;63.78;100153.44;5014814;28;46369;-79
2022/04/01 08:43:53;;;;;;;;;13.33;11.67;;;;;4.60;63.80;100109.19;5014589;28;45275;-71
2022/04/01 08:46:24;;;;;;;;;14.33;13.00;;;;;4.36;63.70;100046.19;5016706;28;45217;-75
2022/04/01 08:48:50;;;;;;;;;10.00;8.00;;;;;4.96;64.44;100147.56;5015273;28;45492;-68
2022/04/01 08:51:17;;;;;;;;;12.00;11.00;;;;;4.66;63.42;100128.97;5014012;28;45731;-67
2022/04/01 08:53:46;;;;;;;;;10.67;10.33;;;;;4.72;64.01;100171.44;5014674;28;45480;-66
2022/04/01 08:56:13;;;;;;;;;10.33;10.33;;;;;4.71;64.09;100147.84;5015972;28;45574;-68
2022/04/01 08:58:39;;;;;;;;;11.33;11.33;;;;;4.73;63.79;100153.84;5016554;28;45727;-69
2022/04/01 09:01:05;;;;;;;;;14.00;13.67;;;;;4.71;64.13;100161.03;5014855;28;47661;-67
2022/04/01 09:03:32;;;;;;;;;17.00;15.67;;;;;4.81;63.87;100183.06;5016419;28;45470;-67
2022/04/01 09:06:02;;;;;;;;;9.67;9.00;;;;;4.78;63.44;100185.91;5017820;28;45404;-67
2022/04/01 09:08:30;;;;;;;;;9.67;9.67;;;;;4.65;63.92;100195.75;5018788;28;45387;-66
2022/04/01 09:11:04;;;;;;;;;12.33;12.33;;;;;4.54;64.03;100178.13;5017075;28;47367;-68
2022/04/01 09:13:51;;;;;;;;;13.00;12.67;;;;;4.70;63.85;100209.38;5018499;28;45321;-68
2022/04/01 09:16:33;;;;;;;;;12.33;10.33;;;;;4.72;64.03;100204.84;5017614;28;45364;-67
2022/04/01 09:19:01;;;;;;;;;11.33;9.00;;;;;4.82;64.67;100211.06;5017166;28;45434;-68
2022/04/01 09:21:41;;;;;;;;;;;;;;;;;;;;;
2022/04/01 09:24:32;;;;;;;;;14.33;14.33;;;;;4.82;63.18;100201.38;5010948;28;71237;-67
2022/04/01 09:26:59;;;;;;;;;10.00;10.00;;;;;4.46;62.72;100165.59;5009689;28;45148;-68
2022/04/01 09:29:34;;;;;;;;;10.67;9.67;;;;;4.42;62.46;100153.63;5018629;28;45393;-67
2022/04/01 09:32:08;;;;;;;;;12.33;9.33;;;;;4.68;63.43;100211.31;5018073;28;46091;-66
2022/04/01 09:34:37;;;;;;;;;15.00;12.33;;;;;4.63;63.48;100227.47;5018367;28;45238;-68
2022/04/01 09:37:02;;;;;;;;;15.67;15.00;;;;;4.58;62.98;100205.91;5018287;28;45463;-67
2022/04/01 09:39:28;;;;;;;;;12.67;11.00;;;;;4.67;63.41;100220.16;5016965;28;45535;-67
2022/04/01 09:41:58;;;;;;;;;15.00;15.00;;;;;4.67;62.97;100230.69;5017841;28;45744;-67
2022/04/01 09:44:29;;;;;;;;;16.00;16.00;;;;;4.72;63.14;100239.91;5017985;28;45298;-70
2022/04/01 09:47:04;;;;;;;;;12.33;12.00;;;;;4.75;63.63;100244.09;5016405;28;45382;-69
2022/04/01 09:49:31;;;;;;;;;8.33;8.33;;;;;4.82;62.47;100245.31;5018041;28;45577;-69
2022/04/01 09:51:57;;;;;;;;;9.33;9.33;;;;;4.78;62.42;100249.94;5017632;28;45269;-66
2022/04/01 09:54:24;;;;;;;;;15.00;14.00;;;;;4.75;62.11;100244.94;5016560;28;45365;-66
2022/04/01 09:56:54;;;;;;;;;14.00;11.33;;;;;4.83;62.32;100249.63;5015977;28;45443;-68
2022/04/01 09:59:22;;;;;;;;;13.33;11.33;;;;;4.68;63.20;100267.44;5017149;28;45536;-69
2022/04/01 10:01:47;;;;;;;;;13.00;13.00;;;;;4.78;63.21;100251.75;5016369;28;46420;-66
2022/04/01 10:04:14;;;;;;;;;15.00;15.00;;;;;4.82;62.87;100261.94;5016399;28;45221;-68
2022/04/01 10:06:40;;;;;;;;;16.33;15.33;;;;;4.83;63.51;100265.41;5017894;28;45519;-68
2022/04/01 10:09:08;;;;;;;;;16.33;15.33;;;;;4.66;63.03;100223.75;5016392;28;45535;-70
2022/04/01 10:11:35;;;;;;;;;16.00;15.00;;;;;5.09;62.82;100269.47;5016276;28;46756;-66
2022/04/01 10:14:07;;;;;;;;;14.00;14.00;;;;;5.16;62.81;100264.56;5013559;28;45489;-69
2022/04/01 10:16:35;;;;;;;;;11.33;11.33;;;;;5.15;62.20;100266.34;5016190;28;45518;-66
2022/04/01 10:19:06;;;;;;;;;16.67;13.33;;;;;5.12;62.03;100268.41;5017580;28;45459;-66
2022/04/01 10:21:34;;;;;;;;;17.00;14.33;;;;;5.03;61.96;100256.78;5015704;28;48245;-69
2022/04/01 10:24:43;;;;;;;;;14.00;13.33;;;;;4.88;62.98;100277.25;5017299;28;45250;-69
2022/04/01 10:27:49;;;;;;;;;19.33;15.00;;;;;4.72;62.82;100275.94;5017025;28;45442;-68
2022/04/01 10:30:17;;;;;;;;;12.67;12.67;;;;;4.71;63.63;100290.06;5017396;28;45236;-67
2022/04/01 10:32:49;;;;;;;;;16.00;13.33;;;;;4.66;62.49;100265.88;5017139;28;45388;-70
2022/04/01 10:35:47;;;;;;;;;20.00;17.67;;;;;4.90;62.27;100290.31;5016072;28;45508;-68
2022/04/01 10:38:39;;;;;;;;;17.67;17.67;;;;;5.02;63.30;100280.63;5013798;28;45358;-68
2022/04/01 10:41:15;;;;;;;;;12.33;12.33;;;;;4.95;61.80;100288.16;5011658;28;45702;-68
2022/04/01 10:43:43;;;;;;;;;16.33;15.33;;;;;5.01;62.53;100294.75;5009209;28;48469;-67
2022/04/01 10:46:11;;;;;;;;;16.33;15.33;;;;;5.13;62.20;100304.31;5015993;28;45966;-68
2022/04/01 10:51:44;;;;;;;;;14.33;13.67;;;;;4.99;61.58;100309.81;5015112;28;45351;-68
2022/04/01 10:54:12;;;;;;;;;20.33;19.33;;;;;4.30;61.34;100236.13;5015497;28;46444;-69
2022/04/01 10:56:40;;;;;;;;;17.67;15.00;;;;;4.28;62.04;100243.31;5007088;28;45615;-68
2022/04/01 10:59:16;;;;;;;;;15.00;15.00;;;;;4.71;62.51;100300.59;5016596;28;45356;-68
2022/04/01 11:01:56;;;;;;;;;14.33;14.33;;;;;5.00;61.83;100322.03;5017047;28;45594;-68
2022/04/01 11:04:21;;;;;;;;;19.33;16.00;;;;;5.07;62.30;100323.25;5016550;28;46370;-68
2022/04/01 11:06:52;;;;;;;;;22.00;18.33;;;;;5.11;62.22;100312.34;5016752;28;45419;-69
2022/04/01 11:09:41;;;;;;;;;18.67;15.67;;;;;5.09;61.39;100322.19;5015517;28;45475;-66
2022/04/01 11:12:15;;;;;;;;;15.67;15.67;;;;;4.96;62.22;100321.44;5017165;28;45439;-68
2022/04/01 11:15:20;;;;;;;;;14.00;14.00;;;;;5.11;62.14;100325.53;4998284;28;47642;-66
2022/04/01 11:17:51;;;;;;;;;17.33;17.33;;;;;4.97;62.57;100309.09;5016305;28;45404;-68
2022/04/01 11:20:19;;;;;;;;;20.67;17.33;;;;;5.24;61.58;100337.75;5016365;28;45366;-69
2022/04/01 11:22:54;;;;;;;;;16.33;16.33;;;;;5.22;61.27;100335.25;5016505;28;45353;-68
2022/04/01 11:25:27;;;;;;;;;17.33;15.00;;;;;5.17;61.77;100340.00;5016220;28;46222;-67
2022/04/01 11:28:04;;;;;;;;;20.67;17.67;;;;;4.94;60.69;100328.63;5016297;28;45495;-68
2022/04/01 11:30:40;;;;;;;;;17.33;17.33;;;;;4.90;61.25;100327.19;5016774;28;45601;-67
2022/04/01 11:33:23;;;;;;;;;15.00;14.00;;;;;4.91;61.07;100320.97;5016334;28;45346;-67
2022/04/01 11:35:51;;;;;;;;;22.00;20.00;;;;;5.03;61.66;100348.16;5015731;28;46221;-68
2022/04/01 11:38:19;;;;;;;;;17.00;13.00;;;;;3.72;60.67;100143.22;5014623;28;45471;-67
2022/04/01 11:40:46;;;;;;;;;14.67;14.67;;;;;4.92;61.47;100351.63;5012342;28;45301;-65
2022/04/01 11:43:20;;;;;;;;;15.67;11.00;;;;;4.78;62.18;100350.03;5016654;28;45514;-67
2022/04/01 11:45:47;;;;;;;;;15.67;15.00;;;;;4.75;61.96;100352.91;5016296;28;45726;-67
2022/04/01 11:48:19;;;;;;;;;12.00;10.33;;;;;4.73;61.86;100361.88;5016156;28;45456;-67
2022/04/01 11:50:47;;;;;;;;;15.00;15.00;;;;;4.81;62.14;100354.25;5014485;28;45530;-67
2022/04/01 11:53:19;;;;;;;;;15.00;15.00;;;;;4.91;62.44;100355.19;5016494;28;45225;-68
2022/04/01 11:55:45;;;;;;;;;14.00;14.00;;;;;4.74;61.52;100353.00;5015834;28;46401;-68
2022/04/01 11:58:10;;;;;;;;;15.00;15.00;;;;;4.80;62.13;100377.06;5015778;28;45615;-65
2022/04/01 12:00:36;;;;;;;;;15.67;15.67;;;;;4.71;61.96;100354.09;5014477;28;45284;-68
2022/04/01 12:03:01;;;;;;;;;22.00;21.00;;;;;4.71;62.32;100379.59;5016282;28;45424;-67